Terminal Aerodrome Forecast
Issued by NWS Austin/San Antonio, TX

Home | Current Version | Previous Version | Text Only | Print | Product List | Glossary On
Versions: 1 2 3 4 5 6 7 8 9 10 11 12 13 14 15 16 17 18 19 20
154
FTUS44 KEWX 290540
TAFSAT
TAF
KSAT 290540Z 2906/3012 04004KT P6SM VCSH FEW040 SCT200
     FM291000 04004KT P6SM BKN015
     FM291600 04007KT P6SM BKN025
     FM291800 07010KT P6SM VCSH BKN035
     FM300300 06006KT P6SM SCT050 BKN120
     FM301000 VRB03KT 6SM BR BKN007=

USA.gov is the U.S. government's official web portal to all federal, state and local government web resources and services.